Terminal Aerodrome Forecast
Issued by NWS

Home | Current Version | Previous Version | Text Only | Print | Product List | Glossary On
Versions: 1 2 3 4 5 6 7 8 9 10 11 12 13
000
FTUS45 KFGZ 061720
TAFPRC
TAF
KPRC 061720Z 0618/0718 15015G25KT P6SM BKN060 BKN100
     FM061900 18014G25KT P6SM BKN050 BKN080
      TEMPO 0621/0624 5SM -TSRA BKN050CB
     FM070000 20008KT 5SM -SHRA BKN035 OVC050
      TEMPO 0701/0705 4SM TSRA BKN025CB OVC045
     FM070500 20005KT P6SM -SHRA BKN040 OVC060=

USA.gov is the U.S. government's official web portal to all federal, state and local government web resources and services.